sensor_id;sensor_type;location;lat;lon;timestamp;pressure;altitude;pressure_sealevel;temperature;humidity
29535;BME280;72082;52.650;8.116;2023-10-31T00:01:34;99091.06;;;12.75;100.00
29535;BME280;72082;52.650;8.116;2023-10-31T00:03:59;99089.41;;;12.74;100.00
29535;BME280;72082;52.650;8.116;2023-10-31T00:06:24;99092.94;;;12.71;100.00
29535;BME280;72082;52.650;8.116;2023-10-31T00:08:49;99096.34;;;12.72;100.00
29535;BME280;72082;52.650;8.116;2023-10-31T00:11:15;99096.34;;;12.72;100.00
29535;BME280;72082;52.650;8.116;2023-10-31T00:13:40;99087.84;;;12.70;100.00
29535;BME280;72082;52.650;8.116;2023-10-31T00:16:05;99094.66;;;12.71;100.00
29535;BME280;72082;52.650;8.116;2023-10-31T00:18:31;99091.22;;;12.72;100.00
29535;BME280;72082;52.650;8.116;2023-10-31T00:20:56;99090.38;;;12.71;100.00
29535;BME280;72082;52.650;8.116;2023-10-31T00:23:22;99085.22;;;12.71;100.00
29535;BME280;72082;52.650;8.116;2023-10-31T00:25:47;99074.94;;;12.71;100.00
29535;BME280;72082;52.650;8.116;2023-10-31T00:28:12;99076.59;;;12.72;100.00
29535;BME280;72082;52.650;8.116;2023-10-31T00:30:38;99076.56;;;12.74;100.00
29535;BME280;72082;52.650;8.116;2023-10-31T00:33:03;99067.16;;;12.73;100.00
29535;BME280;72082;52.650;8.116;2023-10-31T00:35:28;99074.00;;;12.74;100.00
29535;BME280;72082;52.650;8.116;2023-10-31T00:37:53;99081.72;;;12.74;100.00
29535;BME280;72082;52.650;8.116;2023-10-31T00:40:19;99084.31;;;12.72;100.00
29535;BME280;72082;52.650;8.116;2023-10-31T00:42:44;99088.66;;;12.72;100.00
29535;BME280;72082;52.650;8.116;2023-10-31T00:45:10;99092.09;;;12.71;100.00
29535;BME280;72082;52.650;8.116;2023-10-31T00:47:36;99091.22;;;12.72;100.00
29535;BME280;72082;52.650;8.116;2023-10-31T00:50:01;99086.06;;;12.72;100.00
29535;BME280;72082;52.650;8.116;2023-10-31T00:52:26;99082.59;;;12.73;100.00
29535;BME280;72082;52.650;8.116;2023-10-31T00:54:51;99075.72;;;12.73;100.00
29535;BME280;72082;52.650;8.116;2023-10-31T00:57:17;99070.59;;;12.73;100.00
29535;BME280;72082;52.650;8.116;2023-10-31T00:59:42;99071.44;;;12.74;100.00
29535;BME280;72082;52.650;8.116;2023-10-31T01:02:08;99076.56;;;12.74;100.00
29535;BME280;72082;52.650;8.116;2023-10-31T01:04:33;99067.16;;;12.73;100.00
29535;BME280;72082;52.650;8.116;2023-10-31T01:06:58;99070.66;;;12.72;100.00
29535;BME280;72082;52.650;8.116;2023-10-31T01:09:23;99063.81;;;12.71;100.00
29535;BME280;72082;52.650;8.116;2023-10-31T01:11:48;99058.75;;;12.69;100.00
29535;BME280;72082;52.650;8.116;2023-10-31T01:14:14;99054.44;;;12.70;100.00
29535;BME280;72082;52.650;8.116;2023-10-31T01:16:40;99052.72;;;12.70;100.00
29535;BME280;72082;52.650;8.116;2023-10-31T01:19:05;99051.06;;;12.69;100.00
29535;BME280;72082;52.650;8.116;2023-10-31T01:21:30;99043.34;;;12.69;100.00
29535;BME280;72082;52.650;8.116;2023-10-31T01:23:55;99040.78;;;12.69;100.00
29535;BME280;72082;52.650;8.116;2023-10-31T01:26:20;99045.00;;;12.70;100.00
29535;BME280;72082;52.650;8.116;2023-10-31T01:28:46;99034.78;;;12.69;100.00
29535;BME280;72082;52.650;8.116;2023-10-31T01:31:11;99033.94;;;12.68;100.00
29535;BME280;72082;52.650;8.116;2023-10-31T01:33:36;99030.53;;;12.68;100.00
29535;BME280;72082;52.650;8.116;2023-10-31T01:36:02;99030.53;;;12.68;100.00
29535;BME280;72082;52.650;8.116;2023-10-31T01:38:28;99031.38;;;12.68;100.00
29535;BME280;72082;52.650;8.116;2023-10-31T01:40:53;99034.78;;;12.69;100.00
29535;BME280;72082;52.650;8.116;2023-10-31T01:43:31;99020.25;;;12.68;100.00
29535;BME280;72082;52.650;8.116;2023-10-31T01:45:57;99027.09;;;12.69;100.00
29535;BME280;72082;52.650;8.116;2023-10-31T01:48:23;99020.22;;;12.69;100.00
29535;BME280;72082;52.650;8.116;2023-10-31T01:50:50;99019.31;;;12.70;100.00
29535;BME280;72082;52.650;8.116;2023-10-31T01:53:16;99009.03;;;12.70;100.00
29535;BME280;72082;52.650;8.116;2023-10-31T01:55:43;99005.59;;;12.70;100.00
29535;BME280;72082;52.650;8.116;2023-10-31T01:58:08;99009.88;;;12.71;100.00
29535;BME280;72082;52.650;8.116;2023-10-31T02:00:33;99010.75;;;12.70;100.00
29535;BME280;72082;52.650;8.116;2023-10-31T02:02:59;99007.28;;;12.71;100.00
29535;BME280;72082;52.650;8.116;2023-10-31T02:05:24;99004.72;;;12.71;100.00
29535;BME280;72082;52.650;8.116;2023-10-31T02:07:50;99006.53;;;12.69;100.00
29535;BME280;72082;52.650;8.116;2023-10-31T02:10:15;98992.00;;;12.68;100.00
29535;BME280;72082;52.650;8.116;2023-10-31T02:12:40;98994.63;;;12.66;100.00
29535;BME280;72082;52.650;8.116;2023-10-31T02:15:07;98991.16;;;12.67;100.00
29535;BME280;72082;52.650;8.116;2023-10-31T02:17:32;98990.25;;;12.68;100.00
29535;BME280;72082;52.650;8.116;2023-10-31T02:19:58;98991.09;;;12.69;100.00
29535;BME280;72082;52.650;8.116;2023-10-31T02:22:23;98990.25;;;12.68;100.00
29535;BME280;72082;52.650;8.116;2023-10-31T02:24:48;98984.28;;;12.68;100.00
29535;BME280;72082;52.650;8.116;2023-10-31T02:27:13;98975.69;;;12.69;100.00
29535;BME280;72082;52.650;8.116;2023-10-31T02:29:39;98980.81;;;12.69;100.00
29535;BME280;72082;52.650;8.116;2023-10-31T02:32:05;98978.19;;;12.70;100.00
29535;BME280;72082;52.650;8.116;2023-10-31T02:34:30;98974.78;;;12.70;100.00
29535;BME280;72082;52.650;8.116;2023-10-31T02:36:55;98975.56;;;12.72;100.00
29535;BME280;72082;52.650;8.116;2023-10-31T02:39:20;98972.94;;;12.73;100.00
29535;BME280;72082;52.650;8.116;2023-10-31T02:41:46;98957.50;;;12.73;100.00
29535;BME280;72082;52.650;8.116;2023-10-31T02:44:11;98958.34;;;12.74;100.00
29535;BME280;72082;52.650;8.116;2023-10-31T02:46:39;98959.13;;;12.76;100.00
29535;BME280;72082;52.650;8.116;2023-10-31T02:49:04;98962.53;;;12.76;100.00
29535;BME280;72082;52.650;8.116;2023-10-31T02:51:30;98968.50;;;12.77;100.00
29535;BME280;72082;52.650;8.116;2023-10-31T02:53:55;98959.13;;;12.76;100.00
29535;BME280;72082;52.650;8.116;2023-10-31T02:56:20;98959.13;;;12.76;100.00
29535;BME280;72082;52.650;8.116;2023-10-31T02:58:45;98960.00;;;12.75;100.00
29535;BME280;72082;52.650;8.116;2023-10-31T03:01:11;98958.28;;;12.75;100.00
29535;BME280;72082;52.650;8.116;2023-10-31T03:03:36;98963.50;;;12.74;100.00
29535;BME280;72082;52.650;8.116;2023-10-31T03:06:02;98965.22;;;12.73;100.00
29535;BME280;72082;52.650;8.116;2023-10-31T03:08:27;98971.19;;;12.74;100.00
29535;BME280;72082;52.650;8.116;2023-10-31T03:10:52;98961.81;;;12.73;100.00
29535;BME280;72082;52.650;8.116;2023-10-31T03:13:18;98960.97;;;12.72;100.00
29535;BME280;72082;52.650;8.116;2023-10-31T03:15:43;98961.81;;;12.73;100.00
29535;BME280;72082;52.650;8.116;2023-10-31T03:18:09;98955.00;;;12.72;100.00
29535;BME280;72082;52.650;8.116;2023-10-31T03:20:34;98960.16;;;12.72;100.00
29535;BME280;72082;52.650;8.116;2023-10-31T03:22:59;98967.88;;;12.72;100.00
29535;BME280;72082;52.650;8.116;2023-10-31T03:25:24;98968.81;;;12.69;100.00
29535;BME280;72082;52.650;8.116;2023-10-31T03:27:49;98967.97;;;12.69;100.00
29535;BME280;72082;52.650;8.116;2023-10-31T03:30:15;98968.94;;;12.66;100.00
29535;BME280;72082;52.650;8.116;2023-10-31T03:32:41;98965.66;;;12.63;100.00
29535;BME280;72082;52.650;8.116;2023-10-31T03:35:07;98966.50;;;12.63;100.00
29535;BME280;72082;52.650;8.116;2023-10-31T03:37:32;98969.13;;;12.62;100.00
29535;BME280;72082;52.650;8.116;2023-10-31T03:39:57;98974.28;;;12.62;100.00
29535;BME280;72082;52.650;8.116;2023-10-31T03:42:22;98971.75;;;12.60;100.00
29535;BME280;72082;52.650;8.116;2023-10-31T03:44:47;98986.41;;;12.58;100.00
29535;BME280;72082;52.650;8.116;2023-10-31T03:47:13;98996.13;;;12.50;100.00
29535;BME280;72082;52.650;8.116;2023-10-31T03:49:39;99003.47;;;12.37;100.00
29535;BME280;72082;52.650;8.116;2023-10-31T03:52:04;99030.72;;;12.18;100.00
29535;BME280;72082;52.650;8.116;2023-10-31T03:54:30;99027.97;;;12.01;100.00
29535;BME280;72082;52.650;8.116;2023-10-31T03:56:55;99038.91;;;11.83;100.00
29535;BME280;72082;52.650;8.116;2023-10-31T03:59:20;99052.09;;;11.72;100.00
29535;BME280;72082;52.650;8.116;2023-10-31T04:01:45;99072.06;;;11.63;100.00
29535;BME280;72082;52.650;8.116;2023-10-31T04:04:11;99065.72;;;11.48;100.00
29535;BME280;72082;52.650;8.116;2023-10-31T04:06:36;99069.53;;;11.37;100.00
29535;BME280;72082;52.650;8.116;2023-10-31T04:09:01;99077.53;;;11.28;100.00
29535;BME280;72082;52.650;8.116;2023-10-31T04:11:26;99077.81;;;11.18;100.00
29535;BME280;72082;52.650;8.116;2023-10-31T04:13:51;99089.16;;;11.11;100.00
29535;BME280;72082;52.650;8.116;2023-10-31T04:16:17;99084.28;;;11.04;100.00
29535;BME280;72082;52.650;8.116;2023-10-31T04:18:42;99087.84;;;11.00;100.00
29535;BME280;72082;52.650;8.116;2023-10-31T04:21:07;99073.44;;;10.96;100.00
29535;BME280;72082;52.650;8.116;2023-10-31T04:23:32;99123.94;;;10.92;100.00
29535;BME280;72082;52.650;8.116;2023-10-31T04:25:57;99092.56;;;10.86;100.00
29535;BME280;72082;52.650;8.116;2023-10-31T04:28:23;99099.53;;;10.81;100.00
29535;BME280;72082;52.650;8.116;2023-10-31T04:30:48;99109.13;;;10.74;100.00
29535;BME280;72082;52.650;8.116;2023-10-31T04:33:13;99120.34;;;10.70;100.00
29535;BME280;72082;52.650;8.116;2023-10-31T04:35:38;99126.47;;;10.66;100.00
29535;BME280;72082;52.650;8.116;2023-10-31T04:38:03;99148.69;;;10.64;100.00
29535;BME280;72082;52.650;8.116;2023-10-31T04:40:29;99162.50;;;10.60;100.00
29535;BME280;72082;52.650;8.116;2023-10-31T04:42:54;99163.44;;;10.56;100.00
29535;BME280;72082;52.650;8.116;2023-10-31T04:45:19;99172.16;;;10.50;100.00
29535;BME280;72082;52.650;8.116;2023-10-31T04:47:45;99172.28;;;10.46;100.00
29535;BME280;72082;52.650;8.116;2023-10-31T04:50:10;99190.28;;;10.43;100.00
29535;BME280;72082;52.650;8.116;2023-10-31T04:52:35;99200.63;;;10.40;100.00
29535;BME280;72082;52.650;8.116;2023-10-31T04:55:00;99214.38;;;10.36;100.00
29535;BME280;72082;52.650;8.116;2023-10-31T04:57:26;99214.44;;;10.33;100.00
29535;BME280;72082;52.650;8.116;2023-10-31T04:59:51;99211.16;;;10.29;100.00
29535;BME280;72082;52.650;8.116;2023-10-31T05:02:16;99227.44;;;10.27;100.00
29535;BME280;72082;52.650;8.116;2023-10-31T05:04:41;99224.91;;;10.25;100.00
29535;BME280;72082;52.650;8.116;2023-10-31T05:07:07;99228.38;;;10.23;100.00
29535;BME280;72082;52.650;8.116;2023-10-31T05:09:32;99231.84;;;10.20;100.00
29535;BME280;72082;52.650;8.116;2023-10-31T05:11:57;99244.66;;;10.20;100.00
29535;BME280;72082;52.650;8.116;2023-10-31T05:14:22;99232.75;;;10.19;100.00
29535;BME280;72082;52.650;8.116;2023-10-31T05:16:47;99234.47;;;10.19;100.00
29535;BME280;72082;52.650;8.116;2023-10-31T05:19:13;99239.59;;;10.19;100.00
29535;BME280;72082;52.650;8.116;2023-10-31T05:21:38;99259.16;;;10.20;100.00
29535;BME280;72082;52.650;8.116;2023-10-31T05:24:04;99255.78;;;10.19;100.00
29535;BME280;72082;52.650;8.116;2023-10-31T05:26:29;99257.44;;;10.20;100.00
29535;BME280;72082;52.650;8.116;2023-10-31T05:28:55;99258.34;;;10.19;100.00
29535;BME280;72082;52.650;8.116;2023-10-31T05:31:20;99260.00;;;10.20;100.00
29535;BME280;72082;52.650;8.116;2023-10-31T05:33:45;99265.19;;;10.19;100.00
29535;BME280;72082;52.650;8.116;2023-10-31T05:36:21;99265.19;;;10.19;100.00
29535;BME280;72082;52.650;8.116;2023-10-31T05:38:47;99272.88;;;10.19;100.00
29535;BME280;72082;52.650;8.116;2023-10-31T05:41:12;99277.09;;;10.20;100.00
29535;BME280;72082;52.650;8.116;2023-10-31T05:43:37;99281.34;;;10.21;100.00
29535;BME280;72082;52.650;8.116;2023-10-31T05:46:02;99285.59;;;10.22;100.00
29535;BME280;72082;52.650;8.116;2023-10-31T05:48:28;99288.94;;;10.24;100.00
29535;BME280;72082;52.650;8.116;2023-10-31T05:50:53;99294.84;;;10.26;100.00
29535;BME280;72082;52.650;8.116;2023-10-31T05:53:18;99288.88;;;10.27;100.00
29535;BME280;72082;52.650;8.116;2023-10-31T05:55:43;99296.44;;;10.30;100.00
29535;BME280;72082;52.650;8.116;2023-10-31T05:58:09;99298.06;;;10.34;100.00
29535;BME280;72082;52.650;8.116;2023-10-31T06:00:34;99308.22;;;10.37;100.00
29535;BME280;72082;52.650;8.116;2023-10-31T06:02:59;99303.13;;;10.37;100.00
29535;BME280;72082;52.650;8.116;2023-10-31T06:05:25;99308.19;;;10.38;100.00
29535;BME280;72082;52.650;8.116;2023-10-31T06:07:50;99312.38;;;10.41;100.00
29535;BME280;72082;52.650;8.116;2023-10-31T06:10:15;99311.53;;;10.42;100.00
29535;BME280;72082;52.650;8.116;2023-10-31T06:12:40;99323.41;;;10.43;100.00
29535;BME280;72082;52.650;8.116;2023-10-31T06:15:06;99325.16;;;10.42;100.00
29535;BME280;72082;52.650;8.116;2023-10-31T06:17:31;99335.34;;;10.44;100.00
29535;BME280;72082;52.650;8.116;2023-10-31T06:19:57;99337.91;;;10.44;100.00
29535;BME280;72082;52.650;8.116;2023-10-31T06:22:22;99343.03;;;10.44;100.00
29535;BME280;72082;52.650;8.116;2023-10-31T06:24:47;99348.09;;;10.45;100.00
29535;BME280;72082;52.650;8.116;2023-10-31T06:27:12;99352.38;;;10.46;100.00
29535;BME280;72082;52.650;8.116;2023-10-31T06:29:37;99346.41;;;10.46;100.00
29535;BME280;72082;52.650;8.116;2023-10-31T06:32:03;99360.03;;;10.46;100.00
29535;BME280;72082;52.650;8.116;2023-10-31T06:34:28;99349.81;;;10.46;100.00
29535;BME280;72082;52.650;8.116;2023-10-31T06:36:53;99348.09;;;10.47;100.00
29535;BME280;72082;52.650;8.116;2023-10-31T06:39:19;99357.47;;;10.48;100.00
29535;BME280;72082;52.650;8.116;2023-10-31T06:41:44;99364.25;;;10.49;100.00
29535;BME280;72082;52.650;8.116;2023-10-31T06:44:09;99367.72;;;10.48;100.00
29535;BME280;72082;52.650;8.116;2023-10-31T06:46:34;99366.03;;;10.45;100.00
29535;BME280;72082;52.650;8.116;2023-10-31T06:48:59;99376.41;;;10.41;100.00
29535;BME280;72082;52.650;8.116;2023-10-31T06:51:25;99377.38;;;10.37;100.00
29535;BME280;72082;52.650;8.116;2023-10-31T06:53:50;99378.28;;;10.33;100.00
29535;BME280;72082;52.650;8.116;2023-10-31T06:56:15;99399.75;;;10.29;100.00
29535;BME280;72082;52.650;8.116;2023-10-31T06:58:40;99388.72;;;10.27;100.00
29535;BME280;72082;52.650;8.116;2023-10-31T07:01:05;99406.63;;;10.27;100.00
29535;BME280;72082;52.650;8.116;2023-10-31T07:03:31;99404.06;;;10.27;100.00
29535;BME280;72082;52.650;8.116;2023-10-31T07:05:56;99410.91;;;10.26;100.00
29535;BME280;72082;52.650;8.116;2023-10-31T07:08:22;99386.16;;;10.27;100.00
29535;BME280;72082;52.650;8.116;2023-10-31T07:10:47;99404.88;;;10.29;100.00
29535;BME280;72082;52.650;8.116;2023-10-31T07:13:12;99404.88;;;10.29;100.00
29535;BME280;72082;52.650;8.116;2023-10-31T07:15:37;99404.81;;;10.30;100.00
29535;BME280;72082;52.650;8.116;2023-10-31T07:18:03;99399.69;;;10.32;100.00
29535;BME280;72082;52.650;8.116;2023-10-31T07:20:28;99418.41;;;10.34;100.00
29535;BME280;72082;52.650;8.116;2023-10-31T07:22:53;99420.97;;;10.34;100.00
29535;BME280;72082;52.650;8.116;2023-10-31T07:25:19;99423.53;;;10.34;100.00
29535;BME280;72082;52.650;8.116;2023-10-31T07:27:44;99423.53;;;10.34;100.00
29535;BME280;72082;52.650;8.116;2023-10-31T07:30:09;99427.78;;;10.33;100.00
29535;BME280;72082;52.650;8.116;2023-10-31T07:32:35;99432.13;;;10.31;100.00
29535;BME280;72082;52.650;8.116;2023-10-31T07:35:00;99421.88;;;10.31;100.00
29535;BME280;72082;52.650;8.116;2023-10-31T07:37:25;99437.22;;;10.31;100.00
29535;BME280;72082;52.650;8.116;2023-10-31T07:39:50;99435.47;;;10.33;100.00
29535;BME280;72082;52.650;8.116;2023-10-31T07:42:15;99432.91;;;10.35;100.00
29535;BME280;72082;52.650;8.116;2023-10-31T07:44:41;99437.09;;;10.37;100.00
29535;BME280;72082;52.650;8.116;2023-10-31T07:47:06;99441.19;;;10.44;100.00
29535;BME280;72082;52.650;8.116;2023-10-31T07:49:31;99444.47;;;10.49;100.00
29535;BME280;72082;52.650;8.116;2023-10-31T07:51:56;99440.16;;;10.51;100.00
29535;BME280;72082;52.650;8.116;2023-10-31T07:54:21;99448.75;;;10.50;100.00
29535;BME280;72082;52.650;8.116;2023-10-31T07:56:47;99443.63;;;10.49;100.00
29535;BME280;72082;52.650;8.116;2023-10-31T07:59:12;99452.13;;;10.51;100.00
29535;BME280;72082;52.650;8.116;2023-10-31T08:01:37;99449.47;;;10.54;100.00
29535;BME280;72082;52.650;8.116;2023-10-31T08:04:02;99450.22;;;10.59;100.00
29535;BME280;72082;52.650;8.116;2023-10-31T08:06:28;99442.47;;;10.62;100.00
29535;BME280;72082;52.650;8.116;2023-10-31T08:08:53;99452.50;;;10.71;100.00
29535;BME280;72082;52.650;8.116;2023-10-31T08:11:18;99448.91;;;10.78;100.00
29535;BME280;72082;52.650;8.116;2023-10-31T08:13:44;99453.97;;;10.81;100.00
29535;BME280;72082;52.650;8.116;2023-10-31T08:16:09;99451.31;;;10.84;100.00
29535;BME280;72082;52.650;8.116;2023-10-31T08:18:35;99444.38;;;10.88;100.00
29535;BME280;72082;52.650;8.116;2023-10-31T08:21:00;99450.22;;;10.94;100.00
29535;BME280;72082;52.650;8.116;2023-10-31T08:23:26;99453.50;;;10.98;100.00
29535;BME280;72082;52.650;8.116;2023-10-31T08:25:51;99451.78;;;10.98;100.00
29535;BME280;72082;52.650;8.116;2023-10-31T08:28:17;99467.09;;;11.01;100.00
29535;BME280;72082;52.650;8.116;2023-10-31T08:30:42;99460.19;;;11.05;100.00
29535;BME280;72082;52.650;8.116;2023-10-31T08:33:07;99467.69;;;11.11;100.00
29535;BME280;72082;52.650;8.116;2023-10-31T08:35:32;99459.91;;;11.15;100.00
29535;BME280;72082;52.650;8.116;2023-10-31T08:37:58;99481.16;;;11.19;100.00
29535;BME280;72082;52.650;8.116;2023-10-31T08:40:23;99464.00;;;11.21;100.00
29535;BME280;72082;52.650;8.116;2023-10-31T08:42:49;99468.31;;;11.21;100.00
29535;BME280;72082;52.650;8.116;2023-10-31T08:45:14;99476.09;;;11.18;100.00
29535;BME280;72082;52.650;8.116;2023-10-31T08:47:39;99475.31;;;11.14;100.00
29535;BME280;72082;52.650;8.116;2023-10-31T08:50:05;99474.50;;;11.12;100.00
29535;BME280;72082;52.650;8.116;2023-10-31T08:52:30;99483.97;;;11.10;100.00
29535;BME280;72082;52.650;8.116;2023-10-31T08:54:55;99496.06;;;11.05;100.00
29535;BME280;72082;52.650;8.116;2023-10-31T08:57:22;99489.31;;;11.02;100.00
29535;BME280;72082;52.650;8.116;2023-10-31T08:59:47;99499.56;;;11.02;100.00
29535;BME280;72082;52.650;8.116;2023-10-31T09:02:12;99506.41;;;11.00;100.00
29535;BME280;72082;52.650;8.116;2023-10-31T09:04:38;99513.22;;;11.01;100.00
29535;BME280;72082;52.650;8.116;2023-10-31T09:07:03;99503.84;;;11.02;100.00
29535;BME280;72082;52.650;8.116;2023-10-31T09:09:28;99506.41;;;11.02;100.00
29535;BME280;72082;52.650;8.116;2023-10-31T09:11:53;99523.50;;;11.01;100.00
29535;BME280;72082;52.650;8.116;2023-10-31T09:14:19;99521.78;;;11.00;100.00
29535;BME280;72082;52.650;8.116;2023-10-31T09:16:44;99521.78;;;11.02;100.00
29535;BME280;72082;52.650;8.116;2023-10-31T09:19:09;99534.47;;;11.06;100.00
29535;BME280;72082;52.650;8.116;2023-10-31T09:21:34;99533.47;;;11.12;100.00
29535;BME280;72082;52.650;8.116;2023-10-31T09:23:59;99533.28;;;11.20;100.00
29535;BME280;72082;52.650;8.116;2023-10-31T09:26:25;99534.81;;;11.27;100.00
29535;BME280;72082;52.650;8.116;2023-10-31T09:28:50;99533.78;;;11.34;100.00
29535;BME280;72082;52.650;8.116;2023-10-31T09:31:18;99533.66;;;11.38;100.00
29535;BME280;72082;52.650;8.116;2023-10-31T09:33:45;99532.66;;;11.44;100.00
29535;BME280;72082;52.650;8.116;2023-10-31T09:36:10;99535.16;;;11.47;100.00
29535;BME280;72082;52.650;8.116;2023-10-31T09:38:35;99541.09;;;11.49;100.00
29535;BME280;72082;52.650;8.116;2023-10-31T09:41:01;99542.66;;;11.54;100.00
29535;BME280;72082;52.650;8.116;2023-10-31T09:43:26;99547.72;;;11.56;100.00
29535;BME280;72082;52.650;8.116;2023-10-31T09:45:52;99549.38;;;11.58;100.00
29535;BME280;72082;52.650;8.116;2023-10-31T09:48:18;99550.16;;;11.60;100.00
29535;BME280;72082;52.650;8.116;2023-10-31T09:50:46;99546.56;;;11.67;100.00
29535;BME280;72082;52.650;8.116;2023-10-31T09:53:11;99549.69;;;11.78;100.00
29535;BME280;72082;52.650;8.116;2023-10-31T09:55:39;99555.38;;;11.91;100.00
29535;BME280;72082;52.650;8.116;2023-10-31T09:58:04;99560.00;;;12.08;100.00
29535;BME280;72082;52.650;8.116;2023-10-31T10:00:29;99570.78;;;12.20;100.00
29535;BME280;72082;52.650;8.116;2023-10-31T10:02:54;99571.44;;;12.27;100.00
29535;BME280;72082;52.650;8.116;2023-10-31T10:05:20;99570.47;;;12.31;100.00
29535;BME280;72082;52.650;8.116;2023-10-31T10:07:48;99584.94;;;12.33;100.00
29535;BME280;72082;52.650;8.116;2023-10-31T10:10:13;99587.34;;;12.39;100.00
29535;BME280;72082;52.650;8.116;2023-10-31T10:12:41;99588.97;;;12.42;100.00
29535;BME280;72082;52.650;8.116;2023-10-31T10:15:07;99595.06;;;12.39;100.00
29535;BME280;72082;52.650;8.116;2023-10-31T10:17:32;99598.69;;;12.32;100.00
29535;BME280;72082;52.650;8.116;2023-10-31T10:20:08;99601.59;;;12.20;100.00
29535;BME280;72082;52.650;8.116;2023-10-31T10:22:38;99596.72;;;12.11;100.00
29535;BME280;72082;52.650;8.116;2023-10-31T10:25:08;99614.84;;;12.05;100.00
29535;BME280;72082;52.650;8.116;2023-10-31T10:27:34;99617.47;;;12.04;100.00
29535;BME280;72082;52.650;8.116;2023-10-31T10:29:59;99612.34;;;12.04;100.00
29535;BME280;72082;52.650;8.116;2023-10-31T10:32:24;99619.13;;;12.06;100.00
29535;BME280;72082;52.650;8.116;2023-10-31T10:34:50;99618.13;;;12.10;100.00
29535;BME280;72082;52.650;8.116;2023-10-31T10:37:15;99622.19;;;12.19;100.00
29535;BME280;72082;52.650;8.116;2023-10-31T10:39:47;99620.28;;;12.25;100.00
29535;BME280;72082;52.650;8.116;2023-10-31T10:42:13;99621.88;;;12.29;100.00
29535;BME280;72082;52.650;8.116;2023-10-31T10:44:44;99625.25;;;12.31;100.00
29535;BME280;72082;52.650;8.116;2023-10-31T10:47:12;99629.53;;;12.31;100.00
29535;BME280;72082;52.650;8.116;2023-10-31T10:49:41;99627.88;;;12.30;100.00
29535;BME280;72082;52.650;8.116;2023-10-31T10:52:20;99631.19;;;12.33;100.00
29535;BME280;72082;52.650;8.116;2023-10-31T10:57:19;99635.78;;;12.52;100.00
29535;BME280;72082;52.650;8.116;2023-10-31T10:59:48;99634.91;;;12.53;100.00
29535;BME280;72082;52.650;8.116;2023-10-31T11:02:14;99634.91;;;12.53;100.00
29535;BME280;72082;52.650;8.116;2023-10-31T11:04:41;99632.28;;;12.56;100.00
29535;BME280;72082;52.650;8.116;2023-10-31T11:07:07;99633.84;;;12.60;100.00
29535;BME280;72082;52.650;8.116;2023-10-31T11:09:35;99644.13;;;12.60;100.00
29535;BME280;72082;52.650;8.116;2023-10-31T11:12:02;99649.97;;;12.65;100.00
29535;BME280;72082;52.650;8.116;2023-10-31T11:14:28;99638.88;;;12.64;100.00
29535;BME280;72082;52.650;8.116;2023-10-31T11:16:56;99657.06;;;12.57;100.00
29535;BME280;72082;52.650;8.116;2023-10-31T11:19:24;99654.44;;;12.29;100.00
29535;BME280;72082;52.650;8.116;2023-10-31T11:21:53;99661.03;;;12.07;100.00
29535;BME280;72082;52.650;8.116;2023-10-31T11:24:23;99676.03;;;11.90;100.00
29535;BME280;72082;52.650;8.116;2023-10-31T11:26:52;99678.00;;;11.80;100.00
29535;BME280;72082;52.650;8.116;2023-10-31T11:29:18;99690.97;;;11.74;100.00
29535;BME280;72082;52.650;8.116;2023-10-31T11:31:43;99701.31;;;11.71;100.00
29535;BME280;72082;52.650;8.116;2023-10-31T11:34:08;99704.88;;;11.64;100.00
29535;BME280;72082;52.650;8.116;2023-10-31T11:36:36;99703.19;;;11.63;100.00
29535;BME280;72082;52.650;8.116;2023-10-31T11:39:21;99709.16;;;11.65;100.00
29535;BME280;72082;52.650;8.116;2023-10-31T11:41:54;99713.34;;;11.67;100.00
29535;BME280;72082;52.650;8.116;2023-10-31T11:44:22;99722.78;;;11.65;100.00
29535;BME280;72082;52.650;8.116;2023-10-31T11:46:50;99711.78;;;11.60;100.00
29535;BME280;72082;52.650;8.116;2023-10-31T11:49:15;99719.47;;;11.62;100.00
29535;BME280;72082;52.650;8.116;2023-10-31T11:51:40;99715.16;;;11.64;100.00
29535;BME280;72082;52.650;8.116;2023-10-31T11:54:07;99716.84;;;11.65;100.00
29535;BME280;72082;52.650;8.116;2023-10-31T11:56:32;99728.75;;;11.69;100.00
29535;BME280;72082;52.650;8.116;2023-10-31T11:59:00;99727.88;;;11.70;100.00
29535;BME280;72082;52.650;8.116;2023-10-31T12:01:26;99742.41;;;11.68;100.00
29535;BME280;72082;52.650;8.116;2023-10-31T12:03:51;99745.06;;;11.65;100.00
29535;BME280;72082;52.650;8.116;2023-10-31T12:06:16;99747.63;;;11.65;100.00
29535;BME280;72082;52.650;8.116;2023-10-31T12:08:43;99747.66;;;11.63;100.00
29535;BME280;72082;52.650;8.116;2023-10-31T12:13:35;99749.38;;;11.63;100.00
29535;BME280;72082;52.650;8.116;2023-10-31T12:16:00;99759.63;;;11.64;100.00
29535;BME280;72082;52.650;8.116;2023-10-31T12:18:27;99757.91;;;11.63;100.00
29535;BME280;72082;52.650;8.116;2023-10-31T12:20:52;99773.34;;;11.62;100.00
29535;BME280;72082;52.650;8.116;2023-10-31T12:23:17;99780.13;;;11.64;100.00
29535;BME280;72082;52.650;8.116;2023-10-31T12:25:52;99774.94;;;11.67;100.00
29535;BME280;72082;52.650;8.116;2023-10-31T12:28:22;99788.50;;;11.74;100.00
29535;BME280;72082;52.650;8.116;2023-10-31T12:30:49;99786.66;;;11.79;100.00
29535;BME280;72082;52.650;8.116;2023-10-31T12:33:16;99796.91;;;11.81;100.00
29535;BME280;72082;52.650;8.116;2023-10-31T12:35:42;99798.56;;;11.83;100.00
29535;BME280;72082;52.650;8.116;2023-10-31T12:38:12;99805.28;;;11.87;100.00
29535;BME280;72082;52.650;8.116;2023-10-31T12:40:39;99803.41;;;11.95;100.00
29535;BME280;72082;52.650;8.116;2023-10-31T12:43:05;99804.84;;;12.07;100.00
29535;BME280;72082;52.650;8.116;2023-10-31T12:45:31;99810.50;;;12.19;100.00
29535;BME280;72082;52.650;8.116;2023-10-31T12:48:07;99807.69;;;12.28;100.00